Time;durP1;ratioP1;P1;durP2;ratioP2;P2;SDS_P1;SDS_P2;PMS_P1;PMS_P2;Temp;Humidity;BMP_temperature;BMP_pressure;BME280_temperature;BME280_humidity;BME280_pressure;Samples;Min_cycle;Max_cycle;Signal;HPM_P1;HPM_P2
2022/07/19 00:01:02;;;;;;;2.53;2.33;;;;;;;24.73;40.90;96127.75;6151692;23;20198;-88
2022/07/19 00:03:28;;;;;;;2.45;2.30;;;;;;;24.72;40.42;96128.78;6151375;23;20213;-89
2022/07/19 00:05:55;;;;;;;3.95;2.50;;;;;;;24.60;40.86;96121.06;6152298;23;20649;-88
2022/07/19 00:08:21;;;;;;;3.83;2.40;;;;;;;24.54;41.03;96126.53;6151528;23;20210;-89
2022/07/19 00:10:48;;;;;;;4.50;2.38;;;;;;;24.36;41.57;96117.16;6151936;23;20199;-88
2022/07/19 00:13:14;;;;;;;3.00;2.38;;;;;;;24.33;41.76;96121.09;6152829;23;20213;-88
2022/07/19 00:15:41;;;;;;;4.90;2.47;;;;;;;24.22;42.34;96118.59;6154458;23;20182;-88
2022/07/19 00:18:08;;;;;;;2.50;2.30;;;;;;;24.14;42.31;96119.81;6153870;23;20258;-88
2022/07/19 00:20:35;;;;;;;2.63;2.10;;;;;;;24.07;42.63;96117.38;6152962;23;20205;-88
2022/07/19 00:23:01;;;;;;;3.17;2.78;;;;;;;24.09;42.27;96114.50;6153499;23;20214;-87
2022/07/19 00:25:28;;;;;;;3.40;2.08;;;;;;;24.08;42.76;96118.19;6154683;23;20179;-89
2022/07/19 00:27:54;;;;;;;2.60;2.30;;;;;;;24.07;42.54;96121.84;6154453;23;20241;-88
2022/07/19 00:30:21;;;;;;;3.15;2.40;;;;;;;24.04;43.05;96123.16;6153466;23;20218;-89
2022/07/19 00:32:47;;;;;;;2.50;2.30;;;;;;;23.87;43.07;96117.19;6153581;23;20202;-88
2022/07/19 00:35:15;;;;;;;2.78;2.50;;;;;;;23.87;43.67;96116.38;6154872;23;20179;-88
2022/07/19 00:37:41;;;;;;;2.45;2.25;;;;;;;23.90;43.53;96110.63;6155210;23;20178;-87
2022/07/19 00:40:09;;;;;;;3.13;2.30;;;;;;;23.88;44.07;96118.78;6154163;23;20194;-87
2022/07/19 00:42:37;;;;;;;4.40;2.50;;;;;;;23.97;43.69;96114.66;6154617;23;20213;-88
2022/07/19 00:45:04;;;;;;;2.85;2.42;;;;;;;24.04;43.46;96117.13;6156336;23;20182;-87
2022/07/19 00:47:30;;;;;;;5.25;2.40;;;;;;;24.12;43.63;96124.53;6155909;23;20207;-87
2022/07/19 00:49:58;;;;;;;2.80;2.40;;;;;;;24.06;44.06;96120.25;6156181;23;20205;-89
2022/07/19 00:52:28;;;;;;;2.53;2.33;;;;;;;23.93;44.42;96118.03;6154227;23;20181;-88
2022/07/19 00:54:55;;;;;;;2.72;2.40;;;;;;;23.80;44.69;96113.16;6156145;23;20159;-89
2022/07/19 00:57:24;;;;;;;3.35;2.72;;;;;;;23.70;45.01;96113.84;6155317;23;20186;-88
2022/07/19 00:59:53;;;;;;;2.65;2.33;;;;;;;23.72;44.99;96111.75;6156244;23;20195;-89
2022/07/19 01:02:20;;;;;;;2.47;2.30;;;;;;;23.64;45.26;96110.38;6154104;23;20270;-87
2022/07/19 01:04:46;;;;;;;3.63;2.47;;;;;;;23.59;45.50;96106.88;6155719;23;20171;-87
2022/07/19 01:07:13;;;;;;;6.80;2.50;;;;;;;23.56;45.20;96110.00;6156471;23;20182;-88
2022/07/19 01:09:42;;;;;;;2.70;2.50;;;;;;;23.44;45.84;96117.97;6155811;23;20731;-88
2022/07/19 01:12:09;;;;;;;2.50;2.30;;;;;;;23.40;45.45;96109.78;6155188;23;20188;-87
2022/07/19 01:14:36;;;;;;;3.80;2.50;;;;;;;23.22;46.31;96114.53;6154213;23;20213;-87
2022/07/19 01:17:03;;;;;;;2.78;2.50;;;;;;;23.27;46.31;96114.63;6155764;23;20183;-88
2022/07/19 01:19:29;;;;;;;2.65;2.45;;;;;;;23.32;45.96;96104.94;6155697;23;20177;-90
2022/07/19 01:21:57;;;;;;;2.45;2.25;;;;;;;23.33;46.22;96108.38;6154653;23;20175;-89
2022/07/19 01:24:23;;;;;;;2.72;2.53;;;;;;;23.36;46.24;96110.50;6154128;23;20210;-88
2022/07/19 01:26:50;;;;;;;3.30;2.50;;;;;;;23.35;46.36;96111.53;6156173;23;20661;-89
2022/07/19 01:29:17;;;;;;;2.97;2.42;;;;;;;23.35;46.10;96111.53;6156196;23;20198;-88
2022/07/19 01:31:44;;;;;;;2.47;2.28;;;;;;;23.38;46.08;96109.22;6154784;23;20593;-87
2022/07/19 01:34:10;;;;;;;2.60;2.40;;;;;;;23.32;46.35;96112.03;6154923;23;20206;-89
2022/07/19 01:36:37;;;;;;;2.70;2.50;;;;;;;23.12;47.08;96112.56;6155461;23;20279;-88
2022/07/19 01:39:04;;;;;;;2.50;2.30;;;;;;;23.15;46.32;96109.44;6155832;23;20175;-88
2022/07/19 01:41:31;;;;;;;4.38;2.20;;;;;;;23.11;46.84;96118.84;6154695;23;20210;-87
2022/07/19 01:43:57;;;;;;;2.67;2.47;;;;;;;23.04;46.91;96119.03;6153982;23;20206;-87
2022/07/19 01:46:24;;;;;;;2.50;2.30;;;;;;;23.07;46.95;96115.13;6156468;23;20178;-87
2022/07/19 01:48:50;;;;;;;2.65;2.45;;;;;;;23.03;46.67;96116.66;6158111;23;20195;-87
2022/07/19 01:51:17;;;;;;;2.55;2.35;;;;;;;22.98;47.55;96114.75;6158997;23;20213;-90
2022/07/19 01:53:43;;;;;;;3.25;2.50;;;;;;;22.97;47.26;96115.78;6155581;23;20226;-89
2022/07/19 01:56:11;;;;;;;4.07;2.67;;;;;;;22.94;47.34;96115.47;6158571;23;20186;-87
2022/07/19 01:58:38;;;;;;;3.72;2.50;;;;;;;22.94;47.08;96110.22;6157604;23;20226;-89
2022/07/19 02:01:04;;;;;;;3.55;2.42;;;;;;;22.81;47.38;96107.91;6156730;23;20195;-88
2022/07/19 02:03:31;;;;;;;2.70;2.50;;;;;;;22.56;48.07;96105.66;6156136;23;20213;-89
2022/07/19 02:05:57;;;;;;;3.05;2.40;;;;;;;22.42;48.72;96104.41;6157546;23;20175;-90
2022/07/19 02:08:24;;;;;;;3.67;2.58;;;;;;;22.44;48.73;96108.38;6154958;23;20213;-89
2022/07/19 02:10:51;;;;;;;3.80;2.60;;;;;;;22.40;48.88;96097.56;6157260;23;20254;-87
2022/07/19 02:13:18;;;;;;;3.88;2.42;;;;;;;22.45;48.60;96099.47;6157365;23;20214;-88
2022/07/19 02:15:45;;;;;;;2.67;2.35;;;;;;;22.55;48.49;96096.19;6157659;23;20182;-87
2022/07/19 02:18:12;;;;;;;3.00;2.70;;;;;;;22.58;49.11;96093.09;6157450;23;20234;-88
2022/07/19 02:20:38;;;;;;;3.13;2.60;;;;;;;22.65;48.30;96091.13;6156023;23;20194;-87
2022/07/19 02:23:05;;;;;;;2.90;2.70;;;;;;;22.68;48.58;96091.44;6152792;23;20206;-87
2022/07/19 02:25:31;;;;;;;2.88;2.50;;;;;;;22.66;48.41;96090.88;6153151;23;20186;-89
2022/07/19 02:27:58;;;;;;;2.60;2.40;;;;;;;22.52;48.63;96094.84;6152585;23;20308;-87
2022/07/19 02:30:25;;;;;;;2.90;2.67;;;;;;;22.36;49.04;96082.53;6151775;23;20544;-88
2022/07/19 02:32:52;;;;;;;3.35;2.50;;;;;;;22.41;49.09;96085.22;6151256;23;20207;-87
2022/07/19 02:35:18;;;;;;;2.65;2.40;;;;;;;22.34;48.97;96084.59;6152579;23;20186;-87
2022/07/19 02:37:45;;;;;;;2.88;2.55;;;;;;;22.38;49.06;96083.09;6153387;23;20210;-88
2022/07/19 02:40:12;;;;;;;3.28;2.67;;;;;;;22.42;48.81;96086.03;6151557;23;20202;-87
2022/07/19 02:42:39;;;;;;;3.60;2.70;;;;;;;22.40;48.91;96081.81;6152021;23;20202;-88
2022/07/19 02:45:06;;;;;;;2.72;2.53;;;;;;;22.43;48.73;96077.13;6152216;23;20179;-89
2022/07/19 02:47:33;;;;;;;3.92;2.60;;;;;;;22.44;48.69;96078.72;6152846;23;20186;-89
2022/07/19 02:50:00;;;;;;;5.32;2.60;;;;;;;22.51;48.40;96082.00;6152687;23;20213;-87
2022/07/19 02:52:29;;;;;;;4.65;2.78;;;;;;;22.61;48.59;96071.63;6151489;23;20179;-88
2022/07/19 02:54:56;;;;;;;2.92;2.70;;;;;;;22.66;48.45;96074.34;6152261;23;20209;-88
2022/07/19 02:57:22;;;;;;;5.15;2.85;;;;;;;22.58;48.32;96067.66;6153150;23;20182;-88
2022/07/19 02:59:48;;;;;;;2.88;2.58;;;;;;;22.54;48.44;96068.34;6152899;23;20439;-87
2022/07/19 03:02:15;;;;;;;4.10;2.88;;;;;;;22.48;48.59;96070.13;6151274;23;20183;-87
2022/07/19 03:04:42;;;;;;;3.97;2.92;;;;;;;22.50;48.72;96073.31;6152531;23;20191;-89
2022/07/19 03:07:09;;;;;;;3.20;2.85;;;;;;;22.46;48.82;96074.03;6153024;23;20589;-88
2022/07/19 03:09:35;;;;;;;2.70;2.50;;;;;;;22.37;48.99;96081.50;6153532;23;20661;-89
2022/07/19 03:12:02;;;;;;;3.60;2.88;;;;;;;22.30;48.92;96081.66;6152026;23;20211;-87
2022/07/19 03:14:28;;;;;;;4.53;2.88;;;;;;;22.24;49.40;96084.44;6152109;23;20207;-90
2022/07/19 03:16:55;;;;;;;3.05;2.78;;;;;;;22.13;49.99;96091.31;6153022;23;20188;-87
2022/07/19 03:19:21;;;;;;;3.10;2.80;;;;;;;22.03;49.76;96088.53;6152739;23;20194;-87
2022/07/19 03:21:49;;;;;;;3.13;2.83;;;;;;;21.97;50.13;96081.56;6151884;23;20174;-87
2022/07/19 03:24:15;;;;;;;2.95;2.65;;;;;;;21.95;50.24;96081.78;6152006;23;20207;-87
2022/07/19 03:26:42;;;;;;;4.05;2.90;;;;;;;22.08;49.75;96080.75;6153048;23;20806;-87
2022/07/19 03:29:10;;;;;;;3.70;2.78;;;;;;;21.98;49.88;96075.28;6152951;23;20201;-90
2022/07/19 03:31:37;;;;;;;3.70;3.00;;;;;;;21.85;50.14;96072.97;6152320;23;20268;-87
2022/07/19 03:34:03;;;;;;;3.25;2.95;;;;;;;21.74;50.67;96077.25;6152895;23;20250;-88
2022/07/19 03:36:30;;;;;;;4.63;3.08;;;;;;;21.48;51.94;96075.16;6164248;23;20185;-89
2022/07/19 03:38:58;;;;;;;3.42;2.88;;;;;;;21.55;51.32;96076.59;6157504;23;20178;-87
2022/07/19 03:41:24;;;;;;;4.45;3.00;;;;;;;21.58;51.54;96077.97;6155931;23;20199;-87
2022/07/19 03:43:51;;;;;;;3.78;3.20;;;;;;;21.67;51.45;96077.38;6155524;23;20217;-89
2022/07/19 03:46:19;;;;;;;3.63;2.92;;;;;;;21.66;51.13;96077.59;6157124;23;20175;-89
2022/07/19 03:48:45;;;;;;;5.32;3.05;;;;;;;21.67;51.26;96079.19;6155530;23;20242;-87
2022/07/19 03:51:12;;;;;;;5.13;3.03;;;;;;;21.70;51.20;96082.16;6154432;23;21072;-88
2022/07/19 03:53:38;;;;;;;3.13;2.78;;;;;;;21.82;50.39;96078.69;6154429;23;20207;-87
2022/07/19 03:56:07;;;;;;;3.78;3.17;;;;;;;21.98;50.89;96080.53;6154729;23;20213;-87
2022/07/19 03:58:33;;;;;;;2.33;2.08;;;;;;;22.26;50.93;96085.78;6153840;23;20189;-87
2022/07/19 04:01:00;;;;;;;4.30;2.95;;;;;;;22.40;50.35;96084.44;6153177;23;20201;-87
2022/07/19 04:03:27;;;;;;;3.35;2.58;;;;;;;22.58;50.28;96082.59;6153255;23;20676;-87
2022/07/19 04:05:53;;;;;;;4.53;2.60;;;;;;;22.73;49.57;96075.75;6154017;23;20552;-86
2022/07/19 04:08:20;;;;;;;3.00;2.78;;;;;;;22.76;49.25;96074.47;6154080;23;20178;-88
2022/07/19 04:10:46;;;;;;;3.80;3.33;;;;;;;22.86;49.22;96082.53;6152886;23;20708;-88
2022/07/19 04:13:14;;;;;;;3.22;2.92;;;;;;;22.93;49.16;96077.88;6153345;23;20206;-87
2022/07/19 04:15:40;;;;;;;3.60;2.95;;;;;;;22.94;48.77;96074.22;6154449;23;20186;-88
2022/07/19 04:18:07;;;;;;;8.38;3.45;;;;;;;22.91;49.13;96076.53;6155040;23;20174;-86
2022/07/19 04:20:33;;;;;;;4.03;3.25;;;;;;;23.02;49.17;96073.81;6153330;23;20205;-87
2022/07/19 04:22:59;;;;;;;4.15;2.92;;;;;;;23.18;48.75;96076.66;6153178;23;20213;-87
2022/07/19 04:25:26;;;;;;;3.38;3.05;;;;;;;23.34;48.34;96073.97;6152619;23;20175;-87
2022/07/19 04:27:52;;;;;;;3.58;3.03;;;;;;;23.48;48.15;96076.22;6152506;23;20179;-87
2022/07/19 04:30:20;;;;;;;4.13;2.80;;;;;;;23.56;47.93;96068.72;6152236;23;20203;-87
2022/07/19 04:32:47;;;;;;;3.50;3.20;;;;;;;23.55;47.68;96072.41;6151405;23;20199;-86
2022/07/19 04:35:15;;;;;;;5.63;3.20;;;;;;;23.61;47.51;96073.25;6149626;23;20195;-87
2022/07/19 04:37:42;;;;;;;3.35;2.83;;;;;;;23.68;47.48;96071.22;6152884;23;20206;-87
2022/07/19 04:40:09;;;;;;;3.28;2.90;;;;;;;23.72;47.54;96069.69;6151505;23;20202;-87
2022/07/19 04:42:36;;;;;;;3.47;3.10;;;;;;;23.73;47.63;96072.06;6152528;23;20211;-87
2022/07/19 04:45:02;;;;;;;3.95;3.20;;;;;;;23.76;47.75;96071.56;6151628;23;20178;-86
2022/07/19 04:47:30;;;;;;;6.15;2.80;;;;;;;23.66;47.74;96068.84;6151935;23;20183;-87
2022/07/19 04:49:57;;;;;;;3.45;2.97;;;;;;;23.53;47.38;96069.22;6152534;23;20206;-87
2022/07/19 04:52:23;;;;;;;11.32;3.60;;;;;;;23.52;47.52;96072.88;6151667;23;20179;-86
2022/07/19 04:54:50;;;;;;;4.10;3.15;;;;;;;23.55;46.80;96072.41;6152068;23;20171;-87
2022/07/19 04:57:16;;;;;;;12.10;3.63;;;;;;;23.64;46.67;96078.03;6150771;23;20186;-87
2022/07/19 04:59:53;;;;;;;4.43;3.30;;;;;;;23.74;46.50;96076.28;6156354;23;20534;-87
2022/07/19 05:03:03;;;;;;;;;;;;;;;;;;;;;
2022/07/19 05:06:15;;;;;;;;;;;;;;;;;;;;;
2022/07/19 05:14:36;;;;;;;3.42;2.90;;;;;;;24.33;44.68;96084.25;6133068;23;20212;-87
2022/07/19 05:17:16;;;;;;;3.53;2.72;;;;;;;24.40;43.79;96082.22;6186727;23;20679;-88
2022/07/19 05:20:21;;;;;;;3.63;3.00;;;;;;;24.34;42.82;96077.13;6183958;23;20539;-88
2022/07/19 05:23:21;;;;;;;3.50;2.83;;;;;;;24.11;42.63;96079.00;6177322;23;20197;-87
2022/07/19 05:26:00;;;;;;;;;;;;;;;;;;;;;
2022/07/19 05:28:27;;;;;;;5.32;3.40;;;;;;;24.00;42.75;96077.34;6190362;23;20173;-88
2022/07/19 05:30:55;;;;;;;4.13;3.70;;;;;;;23.96;42.82;96072.81;6189434;23;20194;-87
2022/07/19 05:33:27;;;;;;;2.90;2.40;;;;;;;23.80;42.82;96073.72;6177147;22;20213;-88
2022/07/19 05:35:59;;;;;;;3.05;2.75;;;;;;;23.82;43.54;96076.91;6190431;23;20214;-87
2022/07/19 05:39:01;;;;;;;;;;;;;;;;;;;;;
2022/07/19 05:41:32;;;;;;;2.78;2.40;;;;;;;23.96;42.79;96078.88;6189537;23;20224;-88
2022/07/19 05:44:28;;;;;;;;;;;;;;;;;;;;;
2022/07/19 05:47:34;;;;;;;4.25;2.80;;;;;;;24.21;41.84;96069.63;6188908;23;20174;-87
2022/07/19 07:46:18;;;;;;;6.15;2.03;;;;;;;26.73;37.17;96047.16;5837269;24;20283;-84
2022/07/19 08:54:47;;;;;;;3.05;1.80;;;;;;;28.66;31.04;96022.31;6024059;23;20250;-87
2022/07/19 09:00:45;;;;;;;;;;;;;;;;;;;;;
2022/07/19 10:32:37;;;;;;;;;;;;;;;;;;;;;
2022/07/19 10:38:30;;;;;;;;;;;;;;;;;;;;;
2022/07/19 10:48:15;;;;;;;3.85;2.17;;;;;;;32.01;25.05;95958.28;6099054;23;20183;-86
2022/07/19 10:54:09;;;;;;;2.45;1.90;;;;;;;32.37;24.08;95951.00;6155757;23;20563;-86
2022/07/19 11:11:17;;;;;;;;;;;;;;;;;;;;;
2022/07/19 12:43:02;;;;;;;;;;;;;;;;;;;;;
2022/07/19 12:46:21;;;;;;;;;;;;;;;;;;;;;
2022/07/19 12:53:00;;;;;;;5.45;3.90;;;;;;;34.47;22.91;95849.03;6087279;23;20262;-86
2022/07/19 12:55:31;;;;;;;7.70;6.82;;;;;;;34.45;22.62;95847.78;6181397;23;20263;-83
2022/07/19 12:57:57;;;;;;;9.77;6.55;;;;;;;34.52;22.49;95829.34;6223455;23;20165;-82
2022/07/19 13:00:26;;;;;;;4.40;3.40;;;;;;;34.51;22.66;95839.25;6222227;23;20662;-81
2022/07/19 13:02:54;;;;;;;4.18;3.85;;;;;;;34.41;23.20;95841.53;6221860;23;20198;-83
2022/07/19 13:05:22;;;;;;;3.95;3.47;;;;;;;34.18;23.44;95839.06;6223143;23;20220;-83
2022/07/19 13:07:49;;;;;;;3.63;3.25;;;;;;;34.19;23.09;95834.50;6223494;23;20178;-84
2022/07/19 13:10:16;;;;;;;4.30;3.78;;;;;;;34.16;23.69;95835.16;6221732;23;20189;-84
2022/07/19 13:12:44;;;;;;;4.38;3.53;;;;;;;34.19;22.93;95827.28;6220699;23;20205;-84
2022/07/19 13:15:15;;;;;;;4.13;3.83;;;;;;;34.19;23.12;95834.50;6221140;23;20201;-84
2022/07/19 13:17:42;;;;;;;6.20;3.70;;;;;;;34.36;23.48;95817.63;6219765;23;20169;-83
2022/07/19 13:20:10;;;;;;;8.35;4.65;;;;;;;34.38;23.50;95824.22;6222305;23;20177;-83
2022/07/19 13:22:38;;;;;;;6.07;4.35;;;;;;;34.57;23.73;95821.13;6221278;23;20216;-84
2022/07/19 13:25:07;;;;;;;5.00;4.38;;;;;;;34.43;23.70;95818.69;6222260;23;20508;-84
2022/07/19 13:27:33;;;;;;;6.63;4.00;;;;;;;34.58;23.64;95820.03;6222099;23;20180;-84
2022/07/19 13:30:01;;;;;;;5.85;4.00;;;;;;;34.54;24.10;95819.09;6222344;23;20178;-85
2022/07/19 13:32:28;;;;;;;4.35;3.95;;;;;;;34.58;24.22;95828.06;6218516;23;20204;-85
2022/07/19 13:34:54;;;;;;;5.88;4.40;;;;;;;34.78;23.55;95821.19;6221702;23;20198;-83
2022/07/19 13:37:20;;;;;;;7.97;5.00;;;;;;;34.66;22.72;95821.84;6221741;23;20177;-85
2022/07/19 13:39:47;;;;;;;6.00;5.50;;;;;;;34.55;23.44;95824.13;6220044;23;20192;-84
2022/07/19 13:42:14;;;;;;;7.38;5.20;;;;;;;34.58;23.57;95818.13;6219138;23;20173;-84
2022/07/19 13:44:40;;;;;;;5.18;4.75;;;;;;;34.69;24.25;95817.75;6221088;23;20535;-84
2022/07/19 13:47:08;;;;;;;7.10;4.60;;;;;;;34.64;23.76;95824.06;6221381;23;20515;-83
2022/07/19 13:49:35;;;;;;;6.18;4.35;;;;;;;34.56;23.57;95811.53;6221138;23;20188;-84
2022/07/19 13:52:01;;;;;;;5.95;4.45;;;;;;;34.22;23.97;95799.91;6220069;23;20193;-84
2022/07/19 13:54:27;;;;;;;5.03;4.15;;;;;;;34.44;24.35;95806.91;6218726;23;20240;-84
2022/07/19 13:56:54;;;;;;;7.35;4.47;;;;;;;34.59;24.36;95800.19;6222606;23;20189;-84
2022/07/19 13:59:20;;;;;;;9.45;5.15;;;;;;;34.48;23.40;95794.44;6221976;23;20187;-84
2022/07/19 14:01:47;;;;;;;5.18;4.68;;;;;;;34.45;24.18;95794.28;6219180;23;20242;-83
2022/07/19 14:04:15;;;;;;;5.65;4.72;;;;;;;34.48;24.24;95793.63;6219600;23;20210;-85
2022/07/19 14:06:41;;;;;;;5.68;5.00;;;;;;;34.38;23.94;95796.69;6219789;23;20421;-84
2022/07/19 14:09:08;;;;;;;6.55;5.32;;;;;;;34.50;23.82;95778.84;6220592;23;20177;-84
2022/07/19 14:11:35;;;;;;;6.38;4.85;;;;;;;34.51;23.33;95782.31;6220185;23;20253;-84
2022/07/19 14:14:01;;;;;;;5.78;5.05;;;;;;;34.45;23.76;95780.91;6219766;23;20213;-83
2022/07/19 14:16:28;;;;;;;7.28;5.50;;;;;;;34.49;23.90;95779.94;6221189;23;20173;-84
2022/07/19 14:18:55;;;;;;;5.95;5.13;;;;;;;34.56;23.95;95782.91;6221322;23;20185;-84
2022/07/19 14:21:23;;;;;;;8.15;5.65;;;;;;;34.51;23.98;95791.09;6220226;23;20256;-84
2022/07/19 14:23:50;;;;;;;5.93;5.30;;;;;;;34.45;23.96;95789.72;6220040;23;20209;-84
2022/07/19 14:26:16;;;;;;;5.15;4.75;;;;;;;34.58;23.68;95782.56;6219775;23;20654;-84
2022/07/19 14:28:43;;;;;;;9.18;5.13;;;;;;;34.37;23.95;95784.44;6222576;23;20506;-83
2022/07/19 14:31:15;;;;;;;6.80;5.10;;;;;;;34.40;23.42;95787.25;6224208;23;20212;-83
2022/07/19 14:33:42;;;;;;;6.25;4.80;;;;;;;34.34;23.79;95777.84;6222576;23;20209;-83
2022/07/19 14:36:09;;;;;;;7.25;4.90;;;;;;;34.39;23.37;95779.56;6225210;23;20238;-83
2022/07/19 14:38:37;;;;;;;7.03;4.82;;;;;;;34.40;23.34;95778.44;6226386;23;20865;-84
2022/07/19 14:41:03;;;;;;;6.97;4.93;;;;;;;34.30;23.33;95774.25;6224224;23;20180;-84
2022/07/19 14:43:30;;;;;;;8.85;5.13;;;;;;;34.27;23.87;95774.84;6224359;23;20213;-83
2022/07/19 14:45:56;;;;;;;7.57;5.00;;;;;;;34.32;24.18;95773.91;6224091;23;20197;-85
2022/07/19 14:48:23;;;;;;;6.15;5.13;;;;;;;34.26;23.83;95774.06;6225905;23;20229;-84
2022/07/19 14:50:51;;;;;;;6.03;5.43;;;;;;;34.36;23.93;95770.28;6224639;23;20196;-84
2022/07/19 14:53:17;;;;;;;8.32;5.20;;;;;;;34.42;23.72;95766.31;6227840;23;20231;-83
2022/07/19 14:55:45;;;;;;;5.57;5.03;;;;;;;34.17;23.42;95775.22;6222267;23;20401;-83
2022/07/19 14:58:12;;;;;;;8.88;4.70;;;;;;;34.12;23.99;95767.38;6222511;23;20177;-84
2022/07/19 15:00:38;;;;;;;5.72;4.40;;;;;;;34.18;24.36;95771.44;6223922;23;20548;-84
2022/07/19 15:03:05;;;;;;;6.03;4.28;;;;;;;34.15;24.62;95766.75;6220331;23;20257;-84
2022/07/19 15:05:31;;;;;;;10.02;4.40;;;;;;;34.26;24.33;95771.41;6220360;23;20197;-85
2022/07/19 15:07:58;;;;;;;5.40;4.32;;;;;;;34.26;23.48;95763.38;6223731;23;20177;-84
2022/07/19 15:10:24;;;;;;;10.63;8.98;;;;;;;34.27;24.37;95759.59;6222693;23;20184;-85
2022/07/19 15:12:52;;;;;;;7.68;5.97;;;;;;;34.16;23.71;95763.75;6221604;23;20203;-84
2022/07/19 15:15:18;;;;;;;7.03;4.35;;;;;;;34.03;24.37;95762.09;6221433;23;20205;-86
2022/07/19 15:17:45;;;;;;;4.85;4.05;;;;;;;34.03;24.04;95764.00;6222186;23;20177;-85
2022/07/19 15:20:11;;;;;;;8.15;4.63;;;;;;;34.06;24.23;95749.97;6225154;23;20177;-84
2022/07/19 15:22:38;;;;;;;8.77;4.57;;;;;;;34.00;23.88;95764.63;6223213;23;20205;-85
2022/07/19 15:25:06;;;;;;;6.15;4.30;;;;;;;33.96;23.81;95767.16;6223550;23;20198;-85
2022/07/19 15:27:33;;;;;;;6.15;4.90;;;;;;;33.92;24.00;95763.53;6224095;23;20177;-84
2022/07/19 15:30:01;;;;;;;5.97;3.92;;;;;;;33.97;24.23;95753.47;6223744;23;20181;-85
2022/07/19 15:32:27;;;;;;;5.45;4.30;;;;;;;34.11;23.86;95747.09;6223828;23;20197;-84
2022/07/19 15:34:54;;;;;;;6.43;4.40;;;;;;;34.04;24.00;95754.88;6224596;23;20197;-84
2022/07/19 15:37:20;;;;;;;7.35;3.90;;;;;;;33.92;23.80;95759.00;6224458;23;20188;-85
2022/07/19 15:39:47;;;;;;;5.10;4.18;;;;;;;33.91;24.17;95754.75;6223835;23;20178;-85
2022/07/19 15:42:13;;;;;;;5.40;4.28;;;;;;;33.82;24.44;95754.00;6220211;23;20177;-85
2022/07/19 15:44:41;;;;;;;6.82;4.43;;;;;;;33.69;24.52;95752.28;6220494;23;20198;-87
2022/07/19 15:47:09;;;;;;;7.45;4.25;;;;;;;33.45;24.42;95747.50;6212368;23;20173;-83
2022/07/19 15:49:36;;;;;;;6.32;4.15;;;;;;;33.54;24.40;95737.56;6228773;23;20196;-83
2022/07/19 15:52:02;;;;;;;4.78;4.32;;;;;;;33.61;24.56;95743.22;6228043;23;20181;-84
2022/07/19 15:54:29;;;;;;;7.47;4.45;;;;;;;33.57;24.50;95744.94;6226912;23;20209;-84
2022/07/19 15:56:55;;;;;;;5.28;4.43;;;;;;;33.51;24.56;95743.53;6228521;23;20184;-84
2022/07/19 15:59:25;;;;;;;4.78;4.22;;;;;;;33.48;24.38;95741.53;6229450;23;20173;-83
2022/07/19 16:01:51;;;;;;;6.10;4.22;;;;;;;33.49;24.99;95731.59;6227958;23;20169;-83
2022/07/19 16:04:19;;;;;;;10.75;4.40;;;;;;;33.36;24.46;95735.25;6227550;23;20209;-84
2022/07/19 16:06:46;;;;;;;6.57;4.32;;;;;;;33.34;24.77;95732.91;6228326;23;20184;-84
2022/07/19 16:09:12;;;;;;;6.65;4.50;;;;;;;33.37;24.12;95737.63;6229168;23;20180;-83
2022/07/19 16:11:39;;;;;;;6.28;4.35;;;;;;;33.39;24.55;95721.28;6229090;23;20208;-83
2022/07/19 16:14:06;;;;;;;5.72;4.28;;;;;;;33.32;24.84;95729.78;6227830;23;20264;-83
2022/07/19 16:16:33;;;;;;;6.13;4.57;;;;;;;33.34;24.65;95738.25;6229756;23;20253;-84
2022/07/19 16:18:59;;;;;;;6.15;4.55;;;;;;;33.32;24.24;95719.09;6228646;23;20181;-82
2022/07/19 16:21:27;;;;;;;4.93;4.43;;;;;;;33.16;24.40;95726.00;6227549;23;20183;-83
2022/07/19 16:23:54;;;;;;;5.90;4.25;;;;;;;33.09;24.29;95734.53;6229654;23;20203;-84
2022/07/19 16:26:20;;;;;;;7.25;4.28;;;;;;;32.93;24.59;95722.75;6227468;23;20173;-83
2022/07/19 16:28:46;;;;;;;7.22;6.22;;;;;;;32.91;24.56;95723.06;6228053;23;20177;-84
2022/07/19 16:31:13;;;;;;;9.10;8.15;;;;;;;32.90;24.86;95718.06;6227021;23;20187;-83
2022/07/19 16:33:40;;;;;;;7.82;4.53;;;;;;;32.84;24.94;95719.31;6228876;23;20203;-83
2022/07/19 16:36:08;;;;;;;7.43;4.93;;;;;;;32.74;25.43;95712.41;6226457;23;20205;-83
2022/07/19 16:38:35;;;;;;;5.63;4.75;;;;;;;32.62;25.09;95720.22;6230526;23;20189;-84
2022/07/19 16:41:02;;;;;;;5.20;4.70;;;;;;;32.57;25.16;95715.81;6228292;23;20184;-85
2022/07/19 16:43:28;;;;;;;7.72;4.65;;;;;;;32.65;25.10;95713.47;6226818;23;20216;-85
2022/07/19 16:45:55;;;;;;;5.90;4.50;;;;;;;32.68;25.05;95720.84;6223924;23;20198;-86
2022/07/19 16:48:21;;;;;;;7.18;4.50;;;;;;;32.57;25.00;95715.03;6220587;23;20185;-84
2022/07/19 16:50:48;;;;;;;6.38;4.72;;;;;;;32.45;25.03;95728.22;6226223;23;20235;-84
2022/07/19 16:53:14;;;;;;;7.55;4.85;;;;;;;32.36;24.94;95720.19;6227141;23;20205;-84
2022/07/19 16:55:42;;;;;;;7.55;4.80;;;;;;;32.29;25.45;95719.88;6226296;23;20209;-84
2022/07/19 16:58:09;;;;;;;7.82;4.80;;;;;;;32.27;25.41;95724.72;6229376;23;20201;-85
2022/07/19 17:00:35;;;;;;;5.70;5.20;;;;;;;32.18;25.46;95729.22;6227069;23;20188;-84
2022/07/19 17:03:02;;;;;;;6.65;5.95;;;;;;;32.16;25.19;95726.06;6227696;23;20209;-85
2022/07/19 17:05:29;;;;;;;5.57;5.07;;;;;;;32.12;25.18;95725.94;6229587;23;20208;-84
2022/07/19 17:07:55;;;;;;;8.88;5.40;;;;;;;32.07;25.28;95723.41;6231173;23;20233;-84
2022/07/19 17:10:24;;;;;;;6.35;4.90;;;;;;;32.01;25.59;95726.50;6229488;23;20177;-84
2022/07/19 17:12:52;;;;;;;5.72;5.13;;;;;;;32.00;25.72;95717.72;6229864;23;20205;-85
2022/07/19 17:15:19;;;;;;;4.97;4.47;;;;;;;31.90;25.94;95724.16;6230166;23;20201;-84
2022/07/19 17:17:45;;;;;;;7.13;4.30;;;;;;;31.84;25.99;95733.34;6229992;23;20170;-84
2022/07/19 17:20:13;;;;;;;7.45;4.50;;;;;;;31.73;25.75;95739.28;6228658;23;20231;-84
2022/07/19 17:22:39;;;;;;;7.45;4.70;;;;;;;31.73;25.93;95733.94;6228859;23;20480;-84
2022/07/19 17:25:07;;;;;;;8.23;4.68;;;;;;;31.72;25.84;95735.03;6229790;23;20194;-84
2022/07/19 17:27:34;;;;;;;7.38;4.45;;;;;;;31.70;25.95;95731.91;6228512;23;20169;-84
2022/07/19 17:30:02;;;;;;;6.88;4.68;;;;;;;31.69;25.82;95730.31;6229083;23;20197;-84
2022/07/19 17:32:29;;;;;;;8.70;4.47;;;;;;;31.57;26.64;95731.63;6229232;23;20698;-84
2022/07/19 17:34:55;;;;;;;5.22;4.15;;;;;;;31.49;26.52;95732.41;6227881;23;20292;-84
2022/07/19 17:37:22;;;;;;;5.68;4.40;;;;;;;31.48;26.32;95733.50;6228541;23;20184;-84
2022/07/19 17:39:48;;;;;;;6.13;4.18;;;;;;;31.40;26.37;95736.09;6229610;23;20189;-82
2022/07/19 17:42:15;;;;;;;6.50;4.10;;;;;;;31.39;26.65;95732.66;6228549;23;20177;-84
2022/07/19 17:44:41;;;;;;;7.45;4.18;;;;;;;31.33;26.58;95730.44;6229001;23;20198;-84
2022/07/19 17:47:09;;;;;;;5.05;3.85;;;;;;;31.19;26.74;95728.63;6227202;23;20173;-84
2022/07/19 17:49:35;;;;;;;6.97;4.28;;;;;;;31.14;26.46;95731.44;6230612;23;20174;-84
2022/07/19 17:52:02;;;;;;;10.15;9.20;;;;;;;31.10;27.17;95734.97;6226395;23;20198;-84
2022/07/19 17:54:28;;;;;;;5.65;4.40;;;;;;;31.03;26.69;95730.06;6224323;23;20269;-83
2022/07/19 17:56:55;;;;;;;5.28;4.20;;;;;;;31.04;27.16;95736.94;6229456;23;20191;-85
2022/07/19 17:59:22;;;;;;;4.70;4.05;;;;;;;31.04;26.80;95723.66;6227656;23;20177;-84
2022/07/19 18:01:48;;;;;;;5.85;3.95;;;;;;;31.04;26.72;95728.97;6227030;23;20179;-84
2022/07/19 18:04:16;;;;;;;5.20;3.72;;;;;;;30.91;27.00;95730.59;6223828;23;20205;-84
2022/07/19 18:06:43;;;;;;;6.15;4.15;;;;;;;30.87;27.08;95739.47;6228910;23;20184;-83
2022/07/19 18:09:10;;;;;;;5.75;3.90;;;;;;;30.78;27.25;95726.13;6225811;23;20197;-85
2022/07/19 18:11:36;;;;;;;5.32;3.58;;;;;;;30.68;27.24;95736.19;6226348;23;20185;-85
2022/07/19 18:14:04;;;;;;;7.70;3.60;;;;;;;30.66;27.29;95731.19;6225330;23;20217;-86
2022/07/19 18:16:31;;;;;;;4.15;3.75;;;;;;;30.58;27.34;95731.91;6226071;23;20178;-85
2022/07/19 18:18:57;;;;;;;7.30;3.97;;;;;;;30.54;27.46;95736.22;6226625;23;20177;-85
2022/07/19 18:21:25;;;;;;;6.10;3.60;;;;;;;30.55;27.41;95729.84;6223535;23;20177;-84
2022/07/19 18:23:57;;;;;;;5.45;3.70;;;;;;;30.52;27.44;95728.53;6209501;23;20690;-87
2022/07/19 18:26:24;;;;;;;7.05;3.85;;;;;;;30.42;27.71;95726.09;6221932;23;20170;-85
2022/07/19 18:28:50;;;;;;;4.43;3.55;;;;;;;30.35;27.40;95731.03;6222496;23;20174;-85
2022/07/19 18:31:17;;;;;;;7.47;3.88;;;;;;;30.40;27.95;95738.13;6222563;23;20174;-86
2022/07/19 18:33:44;;;;;;;4.45;3.67;;;;;;;30.40;27.92;95730.16;6223889;23;20209;-86